Time;durP1;ratioP1;P1;durP2;ratioP2;P2;SDS_P1;SDS_P2;PMS_P1;PMS_P2;Temp;Humidity;BMP_temperature;BMP_pressure;BME280_temperature;BME280_humidity;BME280_pressure;Samples;Min_cycle;Max_cycle;Signal;HPM_P1;HPM_P2
2024/03/07 00:00:45;;;;;;;33.10;18.52;;;7.10;88.20;;;;;;5095869;28;20491;-34
2024/03/07 00:03:11;;;;;;;34.90;20.27;;;7.10;88.20;;;;;;5095749;28;20048;-35
2024/03/07 00:05:37;;;;;;;32.20;20.10;;;7.10;88.20;;;;;;5095338;28;20448;-36
2024/03/07 00:08:03;;;;;;;32.50;19.23;;;7.10;88.30;;;;;;5095528;28;20040;-37
2024/03/07 00:10:29;;;;;;;33.80;18.58;;;7.10;88.30;;;;;;5095873;28;20032;-36
2024/03/07 00:12:55;;;;;;;30.70;19.30;;;7.10;88.30;;;;;;5095291;28;20039;-35
2024/03/07 00:15:21;;;;;;;31.67;19.00;;;7.10;88.30;;;;;;5095321;28;20028;-37
2024/03/07 00:17:46;;;;;;;36.53;20.77;;;7.10;88.40;;;;;;5094070;28;20012;-35
2024/03/07 00:20:14;;;;;;;32.63;19.33;;;7.10;88.40;;;;;;5095453;28;20077;-36
2024/03/07 00:22:41;;;;;;;34.90;20.23;;;7.10;88.40;;;;;;5095674;28;20378;-37
2024/03/07 00:25:09;;;;;;;32.05;20.15;;;7.10;88.40;;;;;;5095241;28;20487;-35
2024/03/07 00:27:35;;;;;;;35.05;20.33;;;7.10;88.40;;;;;;5095144;28;20024;-36
2024/03/07 00:30:02;;;;;;;34.28;20.48;;;7.10;88.40;;;;;;5095163;28;20107;-36
2024/03/07 00:32:29;;;;;;;30.55;18.98;;;7.10;88.40;;;;;;5093756;28;20031;-35
2024/03/07 00:34:56;;;;;;;32.92;18.48;;;7.10;88.40;;;;;;5094772;28;20516;-34
2024/03/07 00:37:24;;;;;;;33.13;18.88;;;7.00;88.40;;;;;;5095028;28;20415;-36
2024/03/07 00:39:50;;;;;;;35.13;20.80;;;7.00;88.40;;;;;;5095240;28;20445;-36
2024/03/07 00:42:15;;;;;;;33.78;19.50;;;7.00;88.40;;;;;;5093813;28;20104;-36
2024/03/07 00:44:41;;;;;;;31.60;19.52;;;7.00;88.40;;;;;;5095092;28;20555;-36
2024/03/07 00:47:07;;;;;;;34.42;21.15;;;7.00;88.50;;;;;;5095201;28;20028;-37
2024/03/07 00:49:32;;;;;;;36.65;19.95;;;7.00;88.50;;;;;;5095220;28;20058;-36
2024/03/07 00:51:59;;;;;;;35.35;20.55;;;7.00;88.60;;;;;;5094708;28;20104;-36
2024/03/07 00:54:25;;;;;;;38.78;22.33;;;7.00;88.60;;;;;;5094806;28;20031;-36
2024/03/07 00:56:51;;;;;;;33.53;20.48;;;6.90;88.50;;;;;;5095026;28;20028;-37
2024/03/07 00:59:16;;;;;;;33.65;21.00;;;6.90;88.60;;;;;;5094444;28;20130;-36
2024/03/07 01:01:43;;;;;;;37.25;20.85;;;6.90;88.60;;;;;;5094653;28;20036;-36
2024/03/07 01:04:08;;;;;;;32.75;20.27;;;6.90;88.60;;;;;;5094239;28;20028;-37
2024/03/07 01:06:36;;;;;;;32.00;20.30;;;6.90;88.60;;;;;;5094882;28;20020;-35
2024/03/07 01:09:02;;;;;;;33.63;20.13;;;6.90;88.60;;;;;;5094476;28;20024;-37
2024/03/07 01:11:29;;;;;;;33.40;20.92;;;6.90;88.60;;;;;;5094530;28;20028;-36
2024/03/07 01:13:55;;;;;;;34.22;19.70;;;6.90;88.70;;;;;;5094158;28;20035;-36
2024/03/07 01:16:21;;;;;;;32.58;19.55;;;6.90;88.70;;;;;;5094140;28;20384;-37
2024/03/07 01:18:47;;;;;;;33.17;20.02;;;6.90;88.70;;;;;;5094092;28;20021;-35
2024/03/07 01:21:13;;;;;;;32.28;19.27;;;6.90;88.70;;;;;;5092925;28;20031;-35
2024/03/07 01:23:39;;;;;;;33.53;19.17;;;6.90;88.70;;;;;;5092655;28;20028;-36
2024/03/07 01:26:04;;;;;;;35.17;20.27;;;6.90;88.70;;;;;;5094228;28;20422;-36
2024/03/07 01:28:30;;;;;;;33.28;19.60;;;6.80;88.60;;;;;;5093920;28;20020;-36
2024/03/07 01:30:58;;;;;;;33.78;20.48;;;6.80;88.70;;;;;;5094059;28;20024;-36
2024/03/07 01:33:24;;;;;;;33.67;20.60;;;6.80;89.30;;;;;;5094161;28;20012;-35
2024/03/07 01:35:49;;;;;;;30.63;19.42;;;6.80;88.70;;;;;;5093555;28;20040;-36
2024/03/07 01:38:16;;;;;;;34.85;20.35;;;6.80;88.70;;;;;;5093951;28;20027;-35
2024/03/07 01:40:43;;;;;;;33.88;20.17;;;6.80;88.70;;;;;;5093799;28;20016;-36
2024/03/07 01:43:10;;;;;;;35.03;21.13;;;6.80;88.70;;;;;;5093917;28;20059;-36
2024/03/07 01:45:39;;;;;;;33.00;20.52;;;6.80;88.80;;;;;;5093857;28;20380;-35
2024/03/07 01:48:05;;;;;;;31.00;20.35;;;6.80;88.70;;;;;;5093637;28;20026;-35
2024/03/07 01:50:31;;;;;;;34.75;21.15;;;6.80;88.80;;;;;;5093848;28;20413;-34
2024/03/07 01:52:59;;;;;;;33.58;20.60;;;6.80;88.80;;;;;;5093545;28;20024;-35
2024/03/07 01:55:25;;;;;;;34.33;20.85;;;6.80;88.80;;;;;;5092959;28;20448;-35
2024/03/07 01:57:50;;;;;;;34.35;21.13;;;6.70;88.70;;;;;;5093315;28;20112;-36
2024/03/07 02:00:17;;;;;;;35.97;21.85;;;6.70;88.70;;;;;;5093396;28;20024;-36
2024/03/07 02:02:44;;;;;;;38.35;21.95;;;6.70;88.70;;;;;;5093539;28;20055;-36
2024/03/07 02:05:10;;;;;;;37.38;22.00;;;6.70;88.70;;;;;;5093103;28;20030;-36
2024/03/07 02:07:36;;;;;;;35.47;20.42;;;6.70;88.70;;;;;;5093418;28;20028;-36
2024/03/07 02:10:06;;;;;;;41.10;21.75;;;6.70;89.30;;;;;;5093454;28;20020;-37
2024/03/07 02:12:32;;;;;;;33.65;20.33;;;6.70;88.80;;;;;;5092877;28;20020;-35
2024/03/07 02:14:58;;;;;;;34.45;21.08;;;6.60;88.70;;;;;;5092901;28;20063;-35
2024/03/07 02:17:27;;;;;;;35.15;20.98;;;6.60;88.80;;;;;;5092949;28;20534;-36
2024/03/07 02:19:53;;;;;;;36.45;21.60;;;6.60;88.80;;;;;;5092846;28;20030;-35
2024/03/07 02:22:19;;;;;;;38.20;21.67;;;6.60;88.80;;;;;;5092889;28;20024;-35
2024/03/07 02:24:46;;;;;;;35.65;21.20;;;6.60;88.80;;;;;;5092733;28;20028;-35
2024/03/07 02:27:12;;;;;;;36.50;20.83;;;6.60;88.80;;;;;;5093081;28;20020;-36
2024/03/07 02:29:37;;;;;;;34.70;21.25;;;6.60;88.80;;;;;;5092971;28;20036;-34
2024/03/07 02:32:04;;;;;;;33.88;20.92;;;6.60;88.80;;;;;;5092624;28;20389;-35
2024/03/07 02:34:29;;;;;;;40.55;22.52;;;6.60;88.80;;;;;;5092675;28;20404;-35
2024/03/07 02:36:55;;;;;;;33.70;20.60;;;6.60;88.90;;;;;;5092636;28;20031;-35
2024/03/07 02:39:21;;;;;;;34.70;20.50;;;6.60;88.90;;;;;;5092754;28;20051;-37
2024/03/07 02:41:47;;;;;;;35.15;21.10;;;6.60;88.80;;;;;;5092533;28;20035;-34
2024/03/07 02:44:14;;;;;;;36.20;20.52;;;6.60;88.80;;;;;;5092297;28;20024;-35
2024/03/07 02:46:40;;;;;;;34.28;20.73;;;6.60;88.80;;;;;;5092591;28;20043;-35
2024/03/07 02:49:05;;;;;;;38.33;21.98;;;6.50;88.70;;;;;;5092803;28;20044;-36
2024/03/07 02:51:31;;;;;;;36.45;20.55;;;6.60;88.80;;;;;;5092560;28;20065;-36
2024/03/07 02:53:57;;;;;;;37.85;21.63;;;6.50;88.70;;;;;;5092417;28;20020;-35
2024/03/07 02:56:23;;;;;;;37.25;22.05;;;6.60;88.70;;;;;;5092747;28;20048;-36
2024/03/07 02:58:49;;;;;;;33.35;21.33;;;6.60;88.70;;;;;;5092664;28;20020;-36
2024/03/07 03:01:15;;;;;;;36.20;20.92;;;6.60;88.60;;;;;;5092413;28;20379;-36
2024/03/07 03:03:42;;;;;;;37.50;22.33;;;6.50;88.60;;;;;;5092649;28;20032;-37
2024/03/07 03:06:08;;;;;;;34.20;21.50;;;6.60;88.60;;;;;;5091636;28;20406;-36
2024/03/07 03:08:34;;;;;;;37.72;21.63;;;6.50;88.60;;;;;;5091952;28;20028;-35
2024/03/07 03:11:00;;;;;;;34.90;21.30;;;6.50;88.60;;;;;;5092109;28;20452;-36
2024/03/07 03:13:27;;;;;;;36.95;21.63;;;6.50;88.60;;;;;;5091978;28;20052;-36
2024/03/07 03:15:55;;;;;;;35.25;21.13;;;6.60;88.70;;;;;;5091769;28;20028;-34
2024/03/07 03:18:21;;;;;;;35.05;20.85;;;6.60;88.70;;;;;;5092047;28;20024;-35
2024/03/07 03:20:48;;;;;;;33.90;21.48;;;6.50;88.60;;;;;;5091727;28;20028;-34
2024/03/07 03:23:14;;;;;;;33.95;21.55;;;6.50;88.60;;;;;;5092137;28;20032;-34
2024/03/07 03:25:41;;;;;;;38.35;20.95;;;6.50;88.60;;;;;;5092041;28;20359;-36
2024/03/07 03:28:09;;;;;;;37.55;22.45;;;6.50;88.60;;;;;;5092319;28;20028;-38
2024/03/07 03:30:38;;;;;;;37.28;21.88;;;6.50;88.60;;;;;;5092412;28;20024;-35
2024/03/07 03:33:07;;;;;;;39.65;22.10;;;6.40;88.60;;;;;;5091885;28;20024;-32
2024/03/07 03:35:34;;;;;;;36.20;22.35;;;6.40;88.60;;;;;;5091723;28;20051;-35
2024/03/07 03:38:00;;;;;;;33.67;20.42;;;6.40;88.70;;;;;;5091976;28;20468;-37
2024/03/07 03:40:26;;;;;;;35.45;20.73;;;6.40;88.70;;;;;;5092342;28;20017;-34
2024/03/07 03:42:52;;;;;;;37.47;22.35;;;6.30;88.70;;;;;;5091980;28;20185;-34
2024/03/07 03:45:18;;;;;;;33.55;21.45;;;6.30;88.70;;;;;;5092179;28;20020;-35
2024/03/07 03:47:44;;;;;;;38.90;22.42;;;6.30;88.80;;;;;;5092242;28;20440;-35
2024/03/07 03:50:15;;;;;;;38.20;21.30;;;6.20;88.80;;;;;;5092048;28;20058;-36
2024/03/07 03:52:41;;;;;;;38.15;22.40;;;6.20;88.80;;;;;;5092041;28;20024;-35
2024/03/07 03:55:11;;;;;;;36.85;21.52;;;6.20;88.90;;;;;;5091873;28;20097;-34
2024/03/07 03:57:38;;;;;;;36.83;22.60;;;6.10;89.00;;;;;;5091940;28;20044;-35
2024/03/07 04:00:16;;;;;;;40.58;22.48;;;6.10;89.00;;;;;;5091584;28;20028;-35
2024/03/07 04:02:49;;;;;;;34.05;20.95;;;6.10;89.10;;;;;;5091762;28;20472;-35
2024/03/07 04:05:17;;;;;;;32.33;19.92;;;6.10;89.10;;;;;;5091767;28;20020;-35
2024/03/07 04:07:43;;;;;;;39.67;22.05;;;6.00;89.10;;;;;;5091758;28;20024;-34
2024/03/07 04:10:10;;;;;;;36.40;20.80;;;6.10;89.20;;;;;;5091817;28;20456;-35
2024/03/07 04:12:37;;;;;;;36.30;21.33;;;6.00;89.20;;;;;;5091798;28;20047;-35
2024/03/07 04:15:04;;;;;;;38.33;22.20;;;6.00;89.40;;;;;;5091906;28;20457;-36
2024/03/07 04:17:31;;;;;;;35.08;21.50;;;6.00;89.20;;;;;;5093268;28;20028;-37
2024/03/07 04:19:58;;;;;;;36.40;21.83;;;6.00;89.20;;;;;;5095624;28;20457;-34
2024/03/07 04:22:24;;;;;;;37.10;21.55;;;6.00;89.20;;;;;;5095559;28;20533;-35
2024/03/07 04:24:53;;;;;;;35.47;21.15;;;5.90;89.20;;;;;;5095197;28;20028;-33
2024/03/07 04:27:20;;;;;;;37.47;22.83;;;5.90;89.30;;;;;;5095157;28;20032;-36
2024/03/07 04:29:47;;;;;;;35.33;20.98;;;5.90;89.30;;;;;;5094404;28;20020;-36
2024/03/07 04:32:13;;;;;;;35.70;21.25;;;5.90;89.40;;;;;;5095108;28;20028;-36
2024/03/07 04:34:39;;;;;;;38.00;21.42;;;5.90;89.40;;;;;;5094861;28;20069;-35
2024/03/07 04:37:05;;;;;;;36.13;21.20;;;5.90;89.40;;;;;;5095478;28;20024;-34
2024/03/07 04:39:33;;;;;;;36.08;21.20;;;5.90;89.40;;;;;;5094993;28;20071;-36
2024/03/07 04:42:01;;;;;;;35.78;20.35;;;5.90;89.40;;;;;;5094944;28;20027;-36
2024/03/07 04:44:30;;;;;;;34.95;20.75;;;5.90;89.40;;;;;;5094620;28;20051;-35
2024/03/07 04:46:57;;;;;;;34.50;20.83;;;5.90;89.60;;;;;;5094773;28;20024;-33
2024/03/07 04:49:24;;;;;;;38.70;22.30;;;5.90;89.50;;;;;;5094963;28;20464;-35
2024/03/07 04:51:51;;;;;;;35.03;20.83;;;5.90;89.50;;;;;;5094856;28;20376;-36
2024/03/07 04:54:18;;;;;;;31.83;19.35;;;5.90;89.50;;;;;;5094432;28;20032;-34
2024/03/07 04:56:44;;;;;;;33.38;20.23;;;5.80;89.40;;;;;;5094890;28;20093;-35
2024/03/07 04:59:11;;;;;;;36.28;22.13;;;5.80;89.40;;;;;;5094673;28;20020;-35
2024/03/07 05:01:38;;;;;;;34.03;20.38;;;5.80;89.40;;;;;;5094881;28;20031;-34
2024/03/07 05:04:04;;;;;;;33.03;20.33;;;5.80;89.40;;;;;;5094407;28;20096;-34
2024/03/07 05:06:31;;;;;;;34.05;20.98;;;5.80;89.50;;;;;;5094367;28;20020;-34
2024/03/07 05:08:56;;;;;;;33.35;21.23;;;5.70;89.40;;;;;;5094357;28;20063;-33
2024/03/07 05:11:22;;;;;;;34.72;20.60;;;5.70;89.50;;;;;;5094490;28;20052;-36
2024/03/07 05:13:48;;;;;;;35.42;20.35;;;5.80;89.50;;;;;;5094034;28;20024;-34
2024/03/07 05:16:14;;;;;;;33.35;20.10;;;5.70;89.50;;;;;;5094084;28;20020;-35
2024/03/07 05:18:40;;;;;;;34.03;20.17;;;5.70;89.50;;;;;;5094142;28;20103;-36
2024/03/07 05:21:34;;;;;;;33.88;19.15;;;5.70;89.40;;;;;;5094212;28;20030;-36
2024/03/07 05:23:52;;;;;;;31.90;19.27;;;5.70;90.00;;;;;;5093697;28;20061;-34
2024/03/07 05:26:18;;;;;;;29.90;19.23;;;5.70;89.40;;;;;;5094297;28;20024;-35
2024/03/07 05:28:44;;;;;;;34.78;19.42;;;5.60;89.30;;;;;;5093239;28;20024;-36
2024/03/07 05:31:12;;;;;;;31.00;18.90;;;5.70;89.40;;;;;;5093736;28;20024;-36
2024/03/07 05:33:40;;;;;;;29.60;19.35;;;5.60;89.40;;;;;;5093985;28;20032;-36
2024/03/07 05:36:15;;;;;;;32.17;19.20;;;5.60;89.40;;;;;;5093682;28;20043;-35
2024/03/07 05:38:44;;;;;;;32.33;19.48;;;5.60;89.40;;;;;;5093978;28;20031;-35
2024/03/07 05:41:12;;;;;;;34.08;20.00;;;5.60;89.40;;;;;;5093774;28;20038;-35
2024/03/07 05:43:38;;;;;;;30.23;19.02;;;5.60;89.30;;;;;;5093694;28;20076;-35
2024/03/07 05:46:06;;;;;;;30.58;18.58;;;5.60;89.30;;;;;;5093871;28;20035;-36
2024/03/07 05:48:31;;;;;;;32.60;19.85;;;5.60;89.30;;;;;;5093896;28;20039;-36
2024/03/07 05:50:58;;;;;;;35.88;20.98;;;5.60;89.20;;;;;;5094045;28;20024;-34
2024/03/07 05:53:24;;;;;;;31.65;20.13;;;5.50;89.20;;;;;;5094001;28;20024;-35
2024/03/07 05:55:50;;;;;;;35.17;20.23;;;5.50;89.20;;;;;;5093388;28;20460;-34
2024/03/07 05:58:16;;;;;;;33.70;20.15;;;5.50;89.30;;;;;;5093652;28;20021;-35
2024/03/07 06:00:46;;;;;;;30.00;18.48;;;5.50;89.30;;;;;;5093740;28;20118;-37
2024/03/07 06:03:13;;;;;;;34.60;19.05;;;5.40;89.20;;;;;;5093752;28;20406;-37
2024/03/07 06:05:42;;;;;;;32.83;20.25;;;5.40;89.30;;;;;;5093270;28;20020;-36
2024/03/07 06:08:08;;;;;;;34.42;20.65;;;5.40;89.30;;;;;;5093092;28;20116;-36
2024/03/07 06:10:34;;;;;;;30.98;19.58;;;5.40;89.30;;;;;;5093212;28;20067;-35
2024/03/07 06:12:59;;;;;;;30.75;19.38;;;5.40;89.30;;;;;;5093201;28;20020;-35
2024/03/07 06:15:25;;;;;;;32.15;19.40;;;5.30;89.30;;;;;;5093060;28;20016;-35
2024/03/07 06:17:51;;;;;;;32.10;19.98;;;5.30;89.30;;;;;;5093221;28;20460;-36
2024/03/07 06:20:25;;;;;;;31.58;19.42;;;5.30;89.30;;;;;;5091845;28;20209;-33
2024/03/07 06:22:52;;;;;;;33.55;19.50;;;5.30;89.30;;;;;;5093111;28;20021;-35
2024/03/07 06:25:33;;;;;;;31.52;19.35;;;5.30;89.20;;;;;;5091339;28;20028;-35
2024/03/07 06:28:08;;;;;;;33.53;19.42;;;5.20;89.20;;;;;;5092783;28;20024;-35
2024/03/07 06:30:36;;;;;;;30.17;18.65;;;5.20;89.20;;;;;;5092805;28;20030;-35
2024/03/07 06:33:03;;;;;;;34.13;19.05;;;5.20;89.20;;;;;;5091510;28;20345;-35
2024/03/07 06:35:28;;;;;;;28.23;17.85;;;5.20;89.30;;;;;;5092730;28;20086;-34
2024/03/07 06:37:54;;;;;;;32.65;19.08;;;5.20;89.20;;;;;;5092850;28;20056;-36
2024/03/07 06:40:22;;;;;;;28.75;18.05;;;5.20;89.20;;;;;;5092596;28;20024;-36
2024/03/07 06:42:48;;;;;;;31.98;19.38;;;5.20;89.20;;;;;;5092662;28;20038;-35
2024/03/07 06:45:15;;;;;;;29.58;18.45;;;5.20;89.20;;;;;;5092729;28;20443;-36
2024/03/07 06:47:41;;;;;;;28.48;17.42;;;5.20;89.20;;;;;;5091175;28;20024;-35
2024/03/07 06:50:09;;;;;;;29.77;17.83;;;5.20;89.20;;;;;;5092531;28;20039;-35
2024/03/07 06:52:35;;;;;;;29.45;17.45;;;5.20;89.10;;;;;;5092687;28;20036;-34
2024/03/07 06:55:03;;;;;;;30.13;18.88;;;5.20;89.10;;;;;;5092553;28;20028;-36
2024/03/07 06:57:29;;;;;;;29.25;17.40;;;5.30;89.20;;;;;;5092759;28;20081;-35
2024/03/07 06:59:55;;;;;;;30.48;18.42;;;5.30;89.10;;;;;;5091033;28;20154;-35
2024/03/07 07:02:21;;;;;;;27.75;17.83;;;5.30;89.00;;;;;;5092129;28;20028;-35
2024/03/07 07:04:47;;;;;;;28.38;18.02;;;5.30;88.90;;;;;;5092224;28;20054;-35
2024/03/07 07:07:14;;;;;;;31.25;17.88;;;5.30;88.80;;;;;;5092016;28;20103;-35
2024/03/07 07:09:40;;;;;;;28.13;17.25;;;5.30;88.80;;;;;;5091708;28;20035;-35
2024/03/07 07:12:08;;;;;;;26.95;17.20;;;5.30;88.80;;;;;;5091670;28;20063;-35
2024/03/07 07:14:36;;;;;;;25.10;15.80;;;5.40;88.80;;;;;;5092051;28;20028;-37
2024/03/07 07:17:01;;;;;;;24.33;16.00;;;5.40;88.70;;;;;;5091697;28;20099;-36
2024/03/07 07:19:27;;;;;;;25.63;15.40;;;5.40;88.60;;;;;;5091939;28;20115;-35
2024/03/07 07:21:54;;;;;;;23.55;14.80;;;5.40;88.50;;;;;;5092057;28;20531;-35
2024/03/07 07:24:21;;;;;;;22.58;14.32;;;5.50;88.40;;;;;;5092182;28;20036;-35
2024/03/07 07:26:47;;;;;;;25.23;15.15;;;5.50;88.40;;;;;;5090971;28;20035;-35
2024/03/07 07:29:13;;;;;;;25.98;15.73;;;5.60;88.30;;;;;;5091702;28;20032;-42
2024/03/07 07:31:38;;;;;;;24.17;15.38;;;5.60;88.20;;;;;;5091315;28;20030;-37
2024/03/07 07:34:06;;;;;;;25.13;16.17;;;5.60;88.10;;;;;;5090873;28;20031;-36
2024/03/07 07:36:32;;;;;;;22.83;15.20;;;5.70;88.00;;;;;;5089944;28;20024;-36
2024/03/07 07:38:58;;;;;;;21.92;14.73;;;5.70;88.00;;;;;;5091091;28;20029;-34
2024/03/07 07:41:24;;;;;;;24.52;14.60;;;5.70;87.80;;;;;;5091881;28;20099;-37
2024/03/07 07:43:50;;;;;;;22.20;14.02;;;5.80;87.70;;;;;;5090957;28;20075;-36
2024/03/07 07:46:17;;;;;;;23.25;14.23;;;5.80;87.70;;;;;;5091354;28;20467;-36
2024/03/07 07:48:43;;;;;;;22.58;14.85;;;5.80;87.60;;;;;;5091422;28;20103;-35
2024/03/07 07:51:09;;;;;;;21.33;14.18;;;5.80;87.40;;;;;;5089710;28;20027;-34
2024/03/07 07:53:35;;;;;;;18.63;12.35;;;5.90;88.00;;;;;;5094350;28;20361;-34
2024/03/07 07:56:01;;;;;;;18.88;12.65;;;5.90;87.60;;;;;;5095510;28;20099;-34
2024/03/07 07:58:26;;;;;;;20.50;13.30;;;5.90;87.80;;;;;;5095022;28;20235;-37
2024/03/07 08:00:52;;;;;;;20.30;13.45;;;6.00;87.70;;;;;;5094990;28;20024;-35
2024/03/07 08:03:18;;;;;;;19.45;12.90;;;6.00;87.60;;;;;;5094813;28;20032;-35
2024/03/07 08:05:44;;;;;;;21.60;13.55;;;6.10;87.90;;;;;;5095033;28;20031;-37
2024/03/07 08:08:13;;;;;;;18.70;12.30;;;6.10;87.60;;;;;;5095037;28;20039;-36
2024/03/07 08:10:40;;;;;;;18.95;12.75;;;6.10;87.50;;;;;;5095046;28;20396;-36
2024/03/07 08:13:06;;;;;;;17.05;11.38;;;6.20;87.40;;;;;;5093247;28;20045;-35
2024/03/07 08:15:32;;;;;;;16.42;12.07;;;6.20;87.80;;;;;;5094937;28;20092;-36
2024/03/07 08:17:59;;;;;;;16.73;11.15;;;6.30;88.20;;;;;;5093416;28;20286;-34
2024/03/07 08:20:26;;;;;;;19.23;12.57;;;6.30;87.60;;;;;;5094525;28;20034;-38
2024/03/07 08:22:53;;;;;;;15.43;10.32;;;6.40;87.40;;;;;;5094762;28;20511;-36
2024/03/07 08:25:29;;;;;;;16.17;10.98;;;6.40;87.70;;;;;;5094263;28;20032;-33
2024/03/07 08:27:58;;;;;;;16.92;11.35;;;6.40;89.00;;;;;;5094484;28;20028;-36
2024/03/07 08:30:26;;;;;;;18.08;11.65;;;6.40;88.80;;;;;;5094580;28;20028;-36
2024/03/07 08:32:55;;;;;;;14.52;10.75;;;6.50;88.40;;;;;;5094312;28;20188;-35
2024/03/07 08:35:21;;;;;;;15.13;9.93;;;6.50;88.40;;;;;;5094025;28;20411;-35
2024/03/07 08:37:55;;;;;;;16.75;11.07;;;6.60;88.60;;;;;;5094202;28;20465;-34
2024/03/07 08:40:25;;;;;;;17.55;11.13;;;6.60;89.50;;;;;;5094609;28;20055;-37
2024/03/07 08:42:57;;;;;;;16.23;10.50;;;6.60;89.80;;;;;;5094126;28;20396;-36
2024/03/07 08:45:23;;;;;;;16.73;10.15;;;6.70;89.80;;;;;;5094349;28;20032;-37
2024/03/07 08:47:50;;;;;;;16.42;11.52;;;6.70;90.00;;;;;;5094253;28;20557;-34
2024/03/07 08:50:20;;;;;;;15.68;11.27;;;6.70;90.00;;;;;;5094433;28;20076;-35
2024/03/07 08:52:47;;;;;;;17.00;11.85;;;6.80;89.70;;;;;;5094085;28;20056;-33
2024/03/07 08:55:14;;;;;;;16.33;11.60;;;6.80;89.50;;;;;;5094173;28;20363;-35
2024/03/07 08:57:41;;;;;;;14.88;10.20;;;6.90;89.20;;;;;;5094204;28;20415;-34
2024/03/07 09:00:08;;;;;;;17.50;11.25;;;6.90;89.40;;;;;;5094101;28;20542;-36
2024/03/07 09:02:38;;;;;;;14.10;10.38;;;6.90;89.80;;;;;;5093783;28;20032;-36
2024/03/07 09:05:05;;;;;;;16.05;11.10;;;7.00;90.00;;;;;;5091136;28;20051;-36
2024/03/07 09:07:31;;;;;;;15.15;10.98;;;7.00;90.00;;;;;;5093636;28;20073;-36
2024/03/07 09:09:57;;;;;;;17.48;11.38;;;7.00;90.00;;;;;;5093904;28;20031;-34
2024/03/07 09:12:25;;;;;;;16.60;11.60;;;7.10;90.00;;;;;;5093294;28;20090;-35
2024/03/07 09:14:52;;;;;;;15.25;10.65;;;7.10;89.60;;;;;;5093803;28;20736;-36
2024/03/07 09:17:18;;;;;;;14.60;10.45;;;7.20;89.50;;;;;;5093638;28;20024;-35
2024/03/07 09:19:43;;;;;;;16.48;11.23;;;7.20;90.20;;;;;;5093628;28;20551;-37
2024/03/07 09:22:09;;;;;;;17.90;10.82;;;7.20;90.00;;;;;;5093455;28;20104;-34
2024/03/07 09:24:34;;;;;;;18.48;11.30;;;7.30;90.00;;;;;;5092032;28;20028;-35
2024/03/07 09:27:00;;;;;;;17.20;11.18;;;7.30;89.90;;;;;;5093577;28;20024;-35
2024/03/07 09:29:27;;;;;;;15.63;10.93;;;7.40;89.80;;;;;;5093197;28;20369;-35
2024/03/07 09:31:53;;;;;;;14.95;10.98;;;7.40;90.00;;;;;;5093520;28;20391;-36
2024/03/07 09:34:23;;;;;;;16.45;11.25;;;7.50;90.00;;;;;;5092952;28;20384;-35
2024/03/07 09:36:51;;;;;;;14.20;9.30;;;7.60;89.90;;;;;;5093098;28;20020;-34
2024/03/07 09:39:18;;;;;;;17.00;10.02;;;7.60;90.20;;;;;;5093211;28;20024;-35
2024/03/07 09:41:44;;;;;;;15.15;10.30;;;7.70;90.60;;;;;;5093018;28;20111;-36
2024/03/07 09:44:13;;;;;;;15.50;10.10;;;7.70;90.50;;;;;;5093000;28;20033;-34
2024/03/07 09:46:40;;;;;;;14.35;10.63;;;7.70;90.90;;;;;;5093132;28;20024;-35
2024/03/07 09:49:08;;;;;;;15.85;11.25;;;7.80;90.50;;;;;;5093008;28;20040;-34
2024/03/07 09:51:35;;;;;;;14.20;10.82;;;7.80;90.30;;;;;;5093184;28;20503;-35
2024/03/07 09:54:01;;;;;;;16.48;11.68;;;7.80;90.00;;;;;;5092529;28;20024;-35
2024/03/07 09:56:31;;;;;;;17.48;11.68;;;7.90;89.50;;;;;;5092794;28;20277;-35
2024/03/07 09:58:59;;;;;;;15.10;10.60;;;8.00;89.10;;;;;;5093029;28;20476;-35
2024/03/07 10:01:26;;;;;;;17.95;12.07;;;8.10;88.70;;;;;;5092665;28;20028;-37
2024/03/07 10:04:14;;;;;;;17.75;12.00;;;8.10;87.30;;;;;;5092831;28;20537;-35
2024/03/07 10:06:40;;;;;;;14.07;10.60;;;8.20;87.40;;;;;;5092572;28;20107;-37
2024/03/07 10:09:13;;;;;;;15.18;10.95;;;8.20;87.50;;;;;;5092894;28;20024;-34
2024/03/07 10:11:39;;;;;;;16.95;10.73;;;8.30;87.00;;;;;;5092999;28;20101;-35
2024/03/07 10:14:04;;;;;;;16.10;10.45;;;8.40;86.40;;;;;;5092197;28;20575;-37
2024/03/07 10:16:32;;;;;;;13.75;9.82;;;8.50;86.70;;;;;;5091981;28;20107;-35
2024/03/07 10:18:58;;;;;;;14.60;10.13;;;8.50;86.80;;;;;;5092667;28;20078;-37
2024/03/07 10:21:24;;;;;;;15.23;11.20;;;8.60;87.00;;;;;;5092494;28;20052;-34
2024/03/07 10:23:53;;;;;;;16.10;10.55;;;8.70;86.00;;;;;;5092493;28;20093;-35
2024/03/07 10:26:18;;;;;;;15.02;9.57;;;8.80;85.50;;;;;;5092176;28;20032;-35
2024/03/07 10:28:44;;;;;;;14.23;8.50;;;8.80;86.90;;;;;;5092472;28;20028;-36
2024/03/07 10:31:11;;;;;;;14.40;9.43;;;8.90;87.70;;;;;;5091895;28;20087;-36
2024/03/07 10:33:40;;;;;;;14.50;9.77;;;9.00;87.90;;;;;;5092363;28;20073;-35
2024/03/07 10:36:09;;;;;;;12.45;9.38;;;9.00;87.80;;;;;;5091852;28;20585;-37
2024/03/07 10:38:37;;;;;;;14.55;9.20;;;9.10;89.30;;;;;;5091986;28;20028;-37
2024/03/07 10:41:05;;;;;;;15.15;10.65;;;9.20;89.20;;;;;;5091851;28;20031;-35
2024/03/07 10:43:40;;;;;;;15.20;10.13;;;9.30;88.60;;;;;;5092265;28;20111;-35
2024/03/07 10:46:07;;;;;;;14.57;10.55;;;9.30;88.50;;;;;;5092233;28;20055;-37
2024/03/07 10:48:42;;;;;;;18.00;11.10;;;9.30;88.40;;;;;;5092104;28;20508;-34
2024/03/07 10:51:30;;;;;;;13.60;9.57;;;9.40;87.40;;;;;;5092134;28;20024;-37
2024/03/07 10:54:12;;;;;;;16.13;10.65;;;9.30;88.00;;;;;;5091994;28;20036;-34
2024/03/07 10:56:59;;;;;;;15.32;10.15;;;9.30;88.50;;;;;;5092344;28;20028;-36
2024/03/07 10:59:30;;;;;;;15.52;10.57;;;9.40;88.80;;;;;;5092126;28;20035;-36
2024/03/07 11:01:59;;;;;;;14.60;10.30;;;9.40;87.80;;;;;;5091552;28;20034;-40
2024/03/07 11:04:25;;;;;;;15.60;10.43;;;9.40;87.90;;;;;;5091643;28;20103;-36
2024/03/07 11:06:51;;;;;;;14.93;9.88;;;9.50;88.10;;;;;;5091545;28;20062;-35
2024/03/07 11:09:23;;;;;;;16.00;10.45;;;9.60;87.90;;;;;;5091649;28;20016;-35
2024/03/07 11:11:49;;;;;;;15.40;10.65;;;9.60;87.20;;;;;;5091920;28;20346;-34
2024/03/07 11:14:16;;;;;;;14.98;10.07;;;9.60;87.00;;;;;;5091294;28;20028;-36
2024/03/07 11:16:43;;;;;;;15.10;10.20;;;9.70;86.90;;;;;;5090243;28;20020;-35
2024/03/07 11:19:42;;;;;;;15.55;10.30;;;9.70;86.60;;;;;;5091819;28;20043;-36
2024/03/07 11:22:17;;;;;;;16.08;10.30;;;9.90;86.30;;;;;;5090275;28;20039;-34
2024/03/07 11:24:43;;;;;;;15.57;10.25;;;9.90;85.80;;;;;;5091551;28;20412;-36
2024/03/07 11:27:13;;;;;;;17.27;10.90;;;10.00;85.40;;;;;;5092936;28;20369;-34
2024/03/07 11:29:46;;;;;;;15.07;10.38;;;10.10;84.90;;;;;;5095702;28;20020;-36
2024/03/07 11:32:15;;;;;;;14.55;9.93;;;10.10;84.40;;;;;;5095949;28;20442;-33
2024/03/07 11:34:43;;;;;;;16.55;11.13;;;10.20;84.00;;;;;;5095391;28;20061;-35
2024/03/07 11:37:22;;;;;;;13.43;9.38;;;10.20;84.10;;;;;;5095454;28;20024;-36
2024/03/07 11:39:50;;;;;;;13.48;9.50;;;10.30;84.30;;;;;;5095775;28;20039;-36
2024/03/07 11:42:22;;;;;;;12.65;9.05;;;10.30;84.20;;;;;;5095761;28;20027;-36
2024/03/07 11:44:50;;;;;;;14.23;9.13;;;10.30;84.00;;;;;;5095424;28;20032;-35
2024/03/07 11:47:17;;;;;;;10.80;7.90;;;10.30;84.40;;;;;;5095215;28;20051;-37
2024/03/07 11:49:43;;;;;;;12.38;8.63;;;10.30;85.50;;;;;;5095683;28;20528;-35
2024/03/07 11:52:13;;;;;;;12.65;8.65;;;10.30;85.60;;;;;;5095182;28;20103;-37
2024/03/07 11:54:46;;;;;;;14.48;9.43;;;10.30;85.30;;;;;;5095311;28;20036;-36
2024/03/07 11:57:32;;;;;;;14.13;10.05;;;10.30;85.90;;;;;;5093775;28;20028;-35
2024/03/07 12:00:00;;;;;;;13.50;9.52;;;10.40;84.90;;;;;;5094947;28;20032;-35
2024/03/07 12:02:29;;;;;;;13.00;9.45;;;10.40;84.70;;;;;;5095284;28;20024;-37
2024/03/07 12:04:55;;;;;;;12.73;9.23;;;10.50;84.40;;;;;;5094930;28;20090;-36
2024/03/07 12:07:23;;;;;;;13.32;8.55;;;10.50;84.40;;;;;;5095042;28;20028;-36
2024/03/07 12:09:55;;;;;;;13.80;9.13;;;10.60;84.40;;;;;;5095204;28;20103;-34
2024/03/07 12:12:22;;;;;;;13.73;8.90;;;10.70;85.30;;;;;;5094785;28;20024;-34
2024/03/07 12:14:51;;;;;;;12.20;8.63;;;10.80;84.40;;;;;;5094809;28;20035;-35
2024/03/07 12:17:17;;;;;;;12.00;8.48;;;10.90;84.40;;;;;;5093703;28;20119;-35
2024/03/07 12:19:43;;;;;;;13.70;9.27;;;11.00;83.90;;;;;;5094815;28;20052;-35
2024/03/07 12:22:12;;;;;;;13.68;8.85;;;11.00;83.60;;;;;;5094935;28;20099;-35
2024/03/07 12:24:42;;;;;;;14.90;9.82;;;11.00;81.80;;;;;;5094799;28;20567;-36
2024/03/07 12:27:12;;;;;;;12.43;8.25;;;11.00;82.30;;;;;;5094681;28;20107;-37
2024/03/07 12:29:39;;;;;;;13.07;9.20;;;11.10;82.70;;;;;;5094470;28;20059;-35
2024/03/07 12:32:13;;;;;;;11.95;8.40;;;11.20;81.30;;;;;;5094478;28;20098;-37
2024/03/07 12:34:40;;;;;;;11.75;7.80;;;11.20;82.70;;;;;;5094027;28;20040;-36
2024/03/07 12:37:09;;;;;;;10.05;7.10;;;11.20;82.40;;;;;;5093189;28;20116;-37
2024/03/07 12:39:38;;;;;;;11.10;8.25;;;11.40;83.00;;;;;;5093985;28;20038;-36